Time;durP1;ratioP1;P1;durP2;ratioP2;P2;SDS_P1;SDS_P2;PMS_P1;PMS_P2;Temp;Humidity;BMP_temperature;BMP_pressure;BME280_temperature;BME280_humidity;BME280_pressure;Samples;Min_cycle;Max_cycle;Signal;HPM_P1;HPM_P2
2021/11/15 00:00:44;;;;;;;;;74.75;63.25;;;;;14.09;72.83;101543.09;146608;586;46021;-79
2021/11/15 00:03:21;;;;;;;;;75.00;62.75;;;;;14.07;72.91;101543.00;146605;569;46016;-80
2021/11/15 00:05:55;;;;;;;;;73.75;62.00;;;;;14.08;72.61;101543.91;146608;699;45020;-81
2021/11/15 00:08:29;;;;;;;;;74.00;61.00;;;;;14.08;72.47;101543.91;146606;615;46914;-75
2021/11/15 00:11:03;;;;;;;;;76.00;63.00;;;;;14.10;72.46;101552.69;146608;565;46020;-75
2021/11/15 00:13:37;;;;;;;;;74.50;61.75;;;;;14.09;72.35;101558.75;146605;671;46016;-75
2021/11/15 00:16:11;;;;;;;;;75.75;60.00;;;;;14.10;72.04;101552.69;146610;576;46010;-74
2021/11/15 00:18:45;;;;;;;;;66.00;53.75;;;;;14.12;71.64;101551.06;146608;692;45020;-74
2021/11/15 00:21:19;;;;;;;;;65.50;51.00;;;;;14.12;71.44;101545.84;146608;596;46020;-75
2021/11/15 00:23:53;;;;;;;;;50.25;38.75;;;;;14.03;71.56;101524.53;146605;566;46017;-76
2021/11/15 00:26:27;;;;;;;;;67.50;53.25;;;;;14.13;71.48;101547.62;146610;617;46014;-75
2021/11/15 00:29:01;;;;;;;;;72.25;57.00;;;;;14.12;71.68;101544.97;146606;578;46012;-74
2021/11/15 00:31:35;;;;;;;;;67.00;51.75;;;;;14.10;71.30;101544.88;146610;590;46020;-76
2021/11/15 00:34:10;;;;;;;;;70.75;52.25;;;;;14.12;71.61;101547.56;146607;565;45016;-71
2021/11/15 00:36:44;;;;;;;;;65.75;51.00;;;;;14.11;71.22;101551.87;146610;595;45021;-71
2021/11/15 00:39:18;;;;;;;;;68.25;51.50;;;;;14.09;71.17;101549.19;146608;595;46012;-71
2021/11/15 00:41:52;;;;;;;;;64.50;51.25;;;;;14.09;71.11;101562.25;146609;609;45020;-76
2021/11/15 00:44:26;;;;;;;;;67.50;52.50;;;;;14.08;71.26;101552.63;146609;566;46013;-76
2021/11/15 00:46:59;;;;;;;;;65.25;51.75;;;;;14.10;71.53;101552.69;146611;601;45020;-76
2021/11/15 00:49:33;;;;;;;;;66.25;51.75;;;;;14.08;71.25;101551.72;146605;611;47020;-76
2021/11/15 00:52:08;;;;;;;;;65.50;51.25;;;;;14.06;71.38;101549.06;146608;602;46021;-78
2021/11/15 00:54:42;;;;;;;;;69.00;54.00;;;;;14.06;71.45;101550.75;146608;605;46012;-75
2021/11/15 00:57:16;;;;;;;;;70.25;54.50;;;;;14.04;72.28;101539.34;146609;573;45020;-74
2021/11/15 00:59:50;;;;;;;;;73.25;57.00;;;;;14.03;71.76;101540.19;146608;595;46012;-73
2021/11/15 01:02:24;;;;;;;;;68.50;53.00;;;;;13.99;71.87;101539.13;146612;620;45014;-72
2021/11/15 01:04:58;;;;;;;;;69.25;53.00;;;;;13.99;71.80;101543.47;146605;626;46012;-72
2021/11/15 01:07:32;;;;;;;;;68.25;57.25;;;;;13.98;72.73;101533.84;146609;564;46020;-71
2021/11/15 01:10:08;;;;;;;;;69.25;57.00;;;;;13.97;71.67;101534.66;146605;629;46016;-74
2021/11/15 01:12:43;;;;;;;;;70.75;55.00;;;;;13.95;71.71;101538.87;146613;663;45020;-74
2021/11/15 01:15:21;;;;;;;;;73.50;54.75;;;;;13.97;72.31;101530.34;146607;596;46019;-73
2021/11/15 01:17:56;;;;;;;;;75.00;60.25;;;;;14.00;72.91;101529.59;146610;616;46014;-69
2021/11/15 01:20:34;;;;;;;;;70.75;59.75;;;;;13.98;73.08;101526.91;146607;566;45020;-70
2021/11/15 01:23:09;;;;;;;;;70.00;57.75;;;;;13.97;73.24;101527.72;146607;569;46021;-70
2021/11/15 01:25:43;;;;;;;;;68.75;52.75;;;;;13.95;73.18;101524.13;146610;577;45032;-70
2021/11/15 01:28:20;;;;;;;;;74.50;60.75;;;;;13.93;73.20;101523.19;146610;594;45052;-70
2021/11/15 01:30:54;;;;;;;;;70.75;54.50;;;;;13.93;73.23;101523.19;146606;602;46016;-70
2021/11/15 01:33:29;;;;;;;;;72.00;56.75;;;;;13.95;73.24;101531.06;146609;579;46020;-70
2021/11/15 01:36:03;;;;;;;;;71.50;59.00;;;;;13.93;73.50;101520.56;146606;600;45017;-70
2021/11/15 01:38:37;;;;;;;;;70.75;56.00;;;;;13.92;73.31;101523.09;146611;590;45031;-70
2021/11/15 01:41:12;;;;;;;;;70.25;57.00;;;;;13.92;73.09;101523.09;146607;666;46012;-70
2021/11/15 01:43:46;;;;;;;;;71.50;55.75;;;;;13.90;74.27;101522.16;146610;582;45021;-72
2021/11/15 01:46:20;;;;;;;;;70.75;57.50;;;;;13.88;73.98;101516.84;146607;565;46020;-72
2021/11/15 01:48:54;;;;;;;;;71.25;57.25;;;;;13.85;73.82;101517.56;146606;676;46014;-72
2021/11/15 01:51:29;;;;;;;;;71.75;58.75;;;;;13.85;73.34;101519.28;146607;618;46017;-72
2021/11/15 01:54:03;;;;;;;;;67.75;53.75;;;;;13.82;73.05;101514.81;146608;618;46020;-72
2021/11/15 01:56:37;;;;;;;;;71.50;55.75;;;;;13.85;73.33;101517.56;146606;658;46913;-74
2021/11/15 01:59:12;;;;;;;;;69.00;54.50;;;;;13.87;73.40;101517.66;146608;598;46021;-71
2021/11/15 02:01:46;;;;;;;;;69.00;56.25;;;;;13.85;73.58;101514.97;146605;564;47009;-71
2021/11/15 02:04:20;;;;;;;;;67.75;53.00;;;;;13.88;73.58;101518.56;146610;597;45020;-69
2021/11/15 02:06:59;;;;;;;;;68.75;53.00;;;;;13.92;73.28;101517.87;146607;584;45020;-74
2021/11/15 02:09:34;;;;;;;;;68.75;53.00;;;;;13.93;73.44;101515.37;146607;566;46020;-74
2021/11/15 02:12:08;;;;;;;;;67.25;52.00;;;;;13.93;73.55;101527.50;146607;604;46016;-74
2021/11/15 02:14:42;;;;;;;;;68.00;52.50;;;;;13.94;73.58;101526.69;146608;565;46020;-73
2021/11/15 02:17:17;;;;;;;;;65.75;52.00;;;;;13.94;73.24;101521.47;146606;583;46016;-72
2021/11/15 02:19:51;;;;;;;;;68.50;54.75;;;;;13.86;73.24;101508.03;146610;693;45047;-73
2021/11/15 02:22:25;;;;;;;;;69.50;54.00;;;;;13.94;73.22;101526.69;146609;575;45021;-73
2021/11/15 02:25:00;;;;;;;;;69.75;54.50;;;;;13.94;73.19;101527.56;146608;625;46010;-73
2021/11/15 02:27:34;;;;;;;;;66.00;50.25;;;;;13.95;73.45;101531.97;146610;658;45024;-73
2021/11/15 02:30:14;;;;;;;;;70.50;54.25;;;;;13.92;73.20;101530.91;146609;578;46020;-73
2021/11/15 02:32:49;;;;;;;;;68.00;52.25;;;;;13.88;73.00;101524.66;146610;591;45014;-70
2021/11/15 02:35:27;;;;;;;;;65.50;51.00;;;;;13.85;72.92;101522.78;146607;615;46020;-69
2021/11/15 02:38:01;;;;;;;;;68.50;53.25;;;;;13.83;72.79;101520.91;146606;634;45021;-69
2021/11/15 02:40:35;;;;;;;;;68.75;52.50;;;;;13.83;72.54;101531.34;146609;588;45020;-69
2021/11/15 02:43:09;;;;;;;;;65.00;51.25;;;;;13.83;71.75;101532.25;146608;558;46012;-68
2021/11/15 02:45:43;;;;;;;;;69.00;53.25;;;;;13.83;71.80;101534.87;146611;713;45020;-68
2021/11/15 02:48:21;;;;;;;;;62.50;50.50;;;;;13.86;72.14;101528.87;146609;614;45016;-73
2021/11/15 02:50:55;;;;;;;;;69.25;53.50;;;;;13.88;72.02;101527.25;146610;603;45021;-72
2021/11/15 02:53:30;;;;;;;;;66.00;53.00;;;;;13.92;72.26;101529.19;146608;659;45016;-71
2021/11/15 02:56:04;;;;;;;;;64.00;50.50;;;;;13.93;72.13;101527.50;146612;657;46010;-72
2021/11/15 02:58:38;;;;;;;;;64.00;50.25;;;;;13.92;72.23;101531.81;146610;576;45021;-72
2021/11/15 03:01:19;;;;;;;;;65.75;49.75;;;;;13.93;72.13;101525.78;146611;636;45020;-72
2021/11/15 03:03:53;;;;;;;;;67.75;54.00;;;;;13.93;72.51;101525.78;146608;579;46012;-72
2021/11/15 03:06:27;;;;;;;;;66.25;52.25;;;;;13.92;72.57;101523.09;146610;605;45021;-71
2021/11/15 03:09:01;;;;;;;;;64.75;49.50;;;;;13.91;72.47;101517.00;146607;721;45020;-72
2021/11/15 03:11:35;;;;;;;;;65.75;51.00;;;;;13.89;72.97;101521.22;146611;669;45015;-70
2021/11/15 03:14:09;;;;;;;;;63.00;49.00;;;;;13.90;72.97;101524.75;146606;618;46914;-70
2021/11/15 03:16:43;;;;;;;;;66.25;52.00;;;;;13.91;73.10;101521.31;146609;624;45020;-70
2021/11/15 03:19:17;;;;;;;;;65.50;51.50;;;;;13.86;72.86;101516.78;146608;577;46013;-70
2021/11/15 03:21:51;;;;;;;;;67.00;51.75;;;;;13.86;72.28;101513.25;146610;564;45020;-70
2021/11/15 03:24:25;;;;;;;;;66.50;51.50;;;;;13.86;72.84;101511.56;146608;601;46012;-69
2021/11/15 03:26:59;;;;;;;;;67.75;55.00;;;;;13.88;73.21;101508.13;146612;588;45020;-76
2021/11/15 03:29:33;;;;;;;;;64.25;50.75;;;;;13.87;73.47;101512.44;146606;597;46913;-70
2021/11/15 03:32:08;;;;;;;;;68.25;54.00;;;;;13.86;73.37;101508.94;146608;625;46012;-74
2021/11/15 03:34:42;;;;;;;;;66.25;50.75;;;;;13.84;73.11;101510.56;146608;567;46013;-75
2021/11/15 03:37:17;;;;;;;;;67.00;49.75;;;;;13.81;73.17;101510.41;146610;620;45020;-71
2021/11/15 03:39:51;;;;;;;;;69.00;52.00;;;;;13.81;72.92;101507.81;146605;595;46020;-70
2021/11/15 03:42:25;;;;;;;;;66.25;52.00;;;;;13.80;72.33;101507.72;146609;579;45021;-70
2021/11/15 03:44:59;;;;;;;;;64.25;50.00;;;;;13.81;72.63;101504.31;146608;591;45016;-73
2021/11/15 03:47:32;;;;;;;;;64.00;50.00;;;;;13.83;72.77;101507.87;146611;581;45020;-74
2021/11/15 03:50:09;;;;;;;;;70.00;53.50;;;;;13.82;73.03;101506.97;146605;592;46017;-71
2021/11/15 03:52:45;;;;;;;;;61.75;49.50;;;;;13.83;73.02;101500.97;146610;577;45020;-71
2021/11/15 03:55:21;;;;;;;;;63.50;50.50;;;;;13.82;72.93;101506.97;146606;653;46016;-71
2021/11/15 03:57:56;;;;;;;;;66.00;52.00;;;;;13.82;73.10;101506.97;146609;599;45021;-71
2021/11/15 04:00:33;;;;;;;;;65.25;50.25;;;;;13.84;72.90;101512.28;146607;576;46020;-74
2021/11/15 04:03:16;;;;;;;;;67.75;52.25;;;;;13.83;72.97;101506.19;146609;727;46020;-72
2021/11/15 04:06:00;;;;;;;;;68.75;52.50;;;;;13.85;72.66;101512.34;146608;573;45017;-72
2021/11/15 04:08:36;;;;;;;;;67.50;50.75;;;;;13.88;73.25;101513.34;146611;629;45020;-78
2021/11/15 04:11:13;;;;;;;;;65.75;51.50;;;;;13.87;73.14;101515.06;146606;564;46016;-71
2021/11/15 04:13:47;;;;;;;;;66.00;51.75;;;;;13.85;72.15;101514.97;146609;616;45021;-77
2021/11/15 04:16:23;;;;;;;;;65.75;50.75;;;;;12.97;72.10;101359.31;146607;618;46012;-76
2021/11/15 04:19:01;;;;;;;;;61.25;49.75;;;;;13.88;72.15;101518.56;146611;574;45020;-75
2021/11/15 04:21:36;;;;;;;;;68.50;53.50;;;;;13.85;72.07;101514.06;146607;586;45017;-73
2021/11/15 04:24:11;;;;;;;;;70.50;53.25;;;;;13.91;72.08;101519.59;146607;637;46020;-72
2021/11/15 04:26:45;;;;;;;;;68.25;53.75;;;;;13.92;72.09;101520.47;146608;564;45017;-71
2021/11/15 04:29:18;;;;;;;;;66.00;50.75;;;;;13.92;72.14;101518.75;146610;600;45020;-71
2021/11/15 04:31:53;;;;;;;;;62.25;49.00;;;;;13.92;71.44;101523.97;146606;657;46016;-71
2021/11/15 04:34:28;;;;;;;;;68.00;53.00;;;;;13.91;71.55;101524.81;146607;578;46020;-70
2021/11/15 04:37:02;;;;;;;;;67.25;51.50;;;;;13.92;71.47;101536.13;146605;606;46016;-72
2021/11/15 04:39:36;;;;;;;;;68.00;52.75;;;;;13.91;71.40;101532.63;146609;615;45020;-72
2021/11/15 04:42:10;;;;;;;;;61.25;48.75;;;;;13.91;71.27;101535.25;146610;627;46012;-71
2021/11/15 04:44:44;;;;;;;;;67.00;51.50;;;;;13.88;71.11;101528.97;146607;591;46916;-71
2021/11/15 04:47:19;;;;;;;;;66.75;51.25;;;;;13.93;71.21;101538.81;146606;685;45016;-71
2021/11/15 04:49:54;;;;;;;;;66.25;52.25;;;;;13.93;71.45;101525.78;146610;661;46010;-72
2021/11/15 04:52:28;;;;;;;;;64.25;50.75;;;;;13.89;71.55;101529.03;146607;609;46012;-73
2021/11/15 04:55:02;;;;;;;;;65.00;50.50;;;;;13.95;71.85;101531.97;146610;598;45020;-73
2021/11/15 04:57:36;;;;;;;;;65.50;50.25;;;;;13.94;71.94;101538.00;146608;569;46012;-71
2021/11/15 05:00:13;;;;;;;;;64.00;50.50;;;;;13.94;72.12;101539.72;146611;705;45030;-72
2021/11/15 05:02:48;;;;;;;;;61.25;49.00;;;;;13.93;72.37;101544.03;146607;583;45914;-71
2021/11/15 05:05:23;;;;;;;;;66.00;50.75;;;;;13.92;72.37;101543.94;146611;571;45021;-74
2021/11/15 05:08:01;;;;;;;;;69.00;51.25;;;;;13.90;72.39;101548.22;146607;634;46012;-77
2021/11/15 05:10:35;;;;;;;;;63.50;49.50;;;;;13.91;72.46;101550.00;146612;570;45015;-76
2021/11/15 05:13:09;;;;;;;;;63.25;49.50;;;;;13.91;72.55;101553.50;146608;585;46914;-77
2021/11/15 05:15:44;;;;;;;;;65.50;51.00;;;;;13.92;72.66;101557.88;146611;632;45020;-77
2021/11/15 05:18:18;;;;;;;;;64.00;51.00;;;;;13.93;72.64;101554.47;146606;565;46016;-74
2021/11/15 05:20:52;;;;;;;;;63.25;50.00;;;;;13.93;72.76;101556.19;146610;575;45021;-74
2021/11/15 05:23:27;;;;;;;;;72.00;58.00;;;;;13.93;72.67;101561.41;146606;622;46020;-73
2021/11/15 05:26:01;;;;;;;;;66.00;52.00;;;;;13.93;72.50;101558.78;146608;597;46020;-72
2021/11/15 05:28:35;;;;;;;;;71.50;53.25;;;;;13.92;72.38;101555.25;146607;572;45017;-72
2021/11/15 05:31:10;;;;;;;;;70.00;54.50;;;;;13.92;72.24;101568.31;146611;598;45020;-72
2021/11/15 05:33:44;;;;;;;;;66.75;51.50;;;;;13.91;72.24;101569.13;146605;597;46016;-69
2021/11/15 05:36:18;;;;;;;;;69.75;54.00;;;;;13.89;72.04;101556.81;146611;637;45024;-70
2021/11/15 05:38:52;;;;;;;;;70.00;57.25;;;;;13.78;72.48;101556.28;146606;615;45020;-72
2021/11/15 05:41:25;;;;;;;;;69.25;53.25;;;;;13.93;72.44;101571.84;146609;602;46021;-71
2021/11/15 05:44:00;;;;;;;;;69.50;55.00;;;;;13.93;72.17;101571.84;146608;606;45016;-74
2021/11/15 05:46:34;;;;;;;;;71.25;57.50;;;;;13.88;72.32;101560.25;146611;569;45020;-75
2021/11/15 05:49:09;;;;;;;;;76.75;65.25;;;;;13.78;72.15;101551.09;146607;622;45017;-76
2021/11/15 05:51:42;;;;;;;;;75.25;62.00;;;;;13.95;72.12;101580.59;146611;571;45023;-75
2021/11/15 05:54:17;;;;;;;;;76.00;64.25;;;;;13.96;72.56;101585.03;146605;610;46016;-77
2021/11/15 05:56:51;;;;;;;;;70.50;56.25;;;;;13.98;72.20;101588.59;146608;564;46021;-72
2021/11/15 05:59:25;;;;;;;;;70.00;55.50;;;;;13.97;71.97;101589.41;146606;650;45020;-73
2021/11/15 06:01:59;;;;;;;;;69.75;54.25;;;;;13.99;72.06;101601.72;146610;584;45020;-70
2021/11/15 06:04:33;;;;;;;;;67.00;52.75;;;;;13.98;71.45;101599.91;146606;611;46012;-72
2021/11/15 06:07:07;;;;;;;;;65.75;52.00;;;;;13.97;71.65;101603.34;146608;605;46020;-72
2021/11/15 06:09:41;;;;;;;;;67.75;52.00;;;;;13.99;71.70;101603.44;146607;656;46016;-72
2021/11/15 06:12:15;;;;;;;;;67.75;52.25;;;;;13.99;71.80;101608.66;146609;599;46010;-72
2021/11/15 06:14:49;;;;;;;;;69.75;54.50;;;;;14.01;71.67;101605.28;146604;629;46016;-72
2021/11/15 06:17:23;;;;;;;;;66.00;52.00;;;;;14.03;71.77;101618.41;146612;661;45028;-72
2021/11/15 06:19:57;;;;;;;;;68.50;56.25;;;;;14.03;71.73;101619.31;146606;593;45051;-72
2021/11/15 06:22:31;;;;;;;;;67.25;54.25;;;;;14.03;71.80;101621.91;146610;603;46020;-71
2021/11/15 06:25:05;;;;;;;;;66.00;51.50;;;;;14.05;71.70;101628.12;146609;705;45030;-70
2021/11/15 06:27:40;;;;;;;;;65.00;50.00;;;;;14.05;71.77;101630.72;146607;613;46020;-70
2021/11/15 06:30:17;;;;;;;;;65.50;52.25;;;;;14.03;71.68;101637.56;146606;597;46016;-71
2021/11/15 06:32:51;;;;;;;;;69.25;53.00;;;;;14.04;71.61;101638.44;146609;570;45021;-70
2021/11/15 06:35:27;;;;;;;;;67.00;50.75;;;;;14.02;71.72;101642.72;146605;573;46016;-71
2021/11/15 06:38:02;;;;;;;;;63.50;49.00;;;;;14.02;71.73;101643.59;146610;570;46010;-71
2021/11/15 06:40:36;;;;;;;;;69.00;52.00;;;;;14.02;72.11;101654.03;146608;595;45020;-71
2021/11/15 06:43:10;;;;;;;;;68.50;53.50;;;;;14.02;72.19;101668.78;146609;608;45020;-72
2021/11/15 06:45:44;;;;;;;;;68.50;55.00;;;;;14.00;72.17;101654.75;146609;574;45039;-74
2021/11/15 06:48:18;;;;;;;;;64.00;50.50;;;;;13.99;72.28;101655.59;146610;634;46012;-74
2021/11/15 06:50:52;;;;;;;;;68.25;52.75;;;;;14.00;72.63;101660.87;146608;570;45043;-73
2021/11/15 06:53:26;;;;;;;;;68.25;54.00;;;;;14.00;73.20;101663.47;146608;613;46020;-71
2021/11/15 06:56:01;;;;;;;;;70.25;53.00;;;;;14.02;73.19;101666.19;146605;574;45914;-71
2021/11/15 06:58:35;;;;;;;;;70.00;52.25;;;;;14.02;73.61;101660.97;146608;564;46008;-73
2021/11/15 07:01:09;;;;;;;;;69.75;53.50;;;;;14.04;73.18;101659.31;146605;565;46016;-73
2021/11/15 07:03:43;;;;;;;;;68.00;51.75;;;;;14.04;73.55;101660.19;146610;564;46010;-71
2021/11/15 07:06:17;;;;;;;;;69.00;50.75;;;;;14.03;73.68;101662.75;146609;570;45016;-75
2021/11/15 07:08:52;;;;;;;;;69.25;53.50;;;;;14.04;73.68;101660.19;146609;564;46020;-74
2021/11/15 07:11:26;;;;;;;;;68.25;52.50;;;;;14.06;74.07;101660.28;146609;619;46012;-74
2021/11/15 07:14:00;;;;;;;;;73.00;58.50;;;;;14.06;74.28;101661.19;146612;579;45020;-74
2021/11/15 07:16:34;;;;;;;;;73.25;54.25;;;;;14.05;75.15;101662.00;146606;565;45914;-75
2021/11/15 07:19:09;;;;;;;;;71.50;56.75;;;;;14.05;74.77;101663.72;146609;726;46014;-74
2021/11/15 07:21:43;;;;;;;;;59.75;45.50;;;;;14.03;75.27;101665.34;146606;576;46016;-74
2021/11/15 07:24:17;;;;;;;;;65.50;52.50;;;;;14.00;75.41;101667.81;146608;577;46021;-75
2021/11/15 07:26:51;;;;;;;;;72.00;56.25;;;;;13.96;75.81;101658.03;146606;682;45047;-75
2021/11/15 07:29:25;;;;;;;;;69.75;58.00;;;;;13.93;75.12;101663.97;146609;563;46014;-75
2021/11/15 07:32:00;;;;;;;;;56.75;45.50;;;;;13.96;74.86;101665.84;146607;585;46012;-81
2021/11/15 07:34:34;;;;;;;;;60.75;45.50;;;;;14.02;74.67;101666.19;146612;563;45020;-81
2021/11/15 07:37:08;;;;;;;;;60.25;44.75;;;;;14.08;74.85;101661.25;146607;565;46012;-81
2021/11/15 07:39:43;;;;;;;;;60.00;45.75;;;;;14.14;74.33;101658.97;146609;590;45021;-81
2021/11/15 07:42:19;;;;;;;;;56.25;44.50;;;;;14.22;74.24;101654.16;146610;627;45016;-82
2021/11/15 07:44:53;;;;;;;;;63.00;48.00;;;;;14.29;74.12;101657.13;146609;621;46012;-82
2021/11/15 07:47:27;;;;;;;;;64.50;49.50;;;;;14.36;74.31;101653.16;146606;566;45020;-81
2021/11/15 07:50:01;;;;;;;;;63.50;50.75;;;;;14.40;74.11;101659.44;146611;583;45020;-81
2021/11/15 07:52:36;;;;;;;;;67.25;51.00;;;;;14.39;73.52;101650.69;146607;671;45016;-81
2021/11/15 07:55:14;;;;;;;;;62.75;50.00;;;;;14.44;73.75;101658.75;146611;581;45028;-76
2021/11/15 07:57:49;;;;;;;;;63.25;48.75;;;;;14.46;73.81;101668.44;146605;590;46012;-76
2021/11/15 08:00:29;;;;;;;;;60.50;47.00;;;;;14.45;73.77;101664.03;146610;588;45020;-76
2021/11/15 08:03:07;;;;;;;;;64.25;48.25;;;;;14.43;73.42;101667.41;146610;598;45014;-77
2021/11/15 08:05:41;;;;;;;;;63.75;49.50;;;;;14.44;73.59;101667.47;146609;645;46020;-77
2021/11/15 08:08:15;;;;;;;;;64.50;50.00;;;;;14.45;73.47;101670.97;146608;595;46914;-77
2021/11/15 08:10:49;;;;;;;;;66.50;51.75;;;;;14.47;73.27;101667.63;146611;633;45021;-79
2021/11/15 08:13:23;;;;;;;;;72.00;59.25;;;;;14.51;73.79;101673.91;146609;601;45020;-78
2021/11/15 08:15:57;;;;;;;;;64.50;51.75;;;;;14.53;73.52;101667.06;146610;623;45021;-79
2021/11/15 08:18:31;;;;;;;;;69.25;56.75;;;;;14.51;73.86;101664.37;146605;572;46021;-78
2021/11/15 08:21:11;;;;;;;;;70.00;53.50;;;;;14.53;73.39;101664.47;146609;576;45020;-73
2021/11/15 08:23:50;;;;;;;;;73.25;61.25;;;;;14.54;73.75;101661.91;146607;618;45017;-74
2021/11/15 08:26:48;;;;;;;;;72.00;58.50;;;;;14.53;73.60;101662.75;146609;585;46012;-74
2021/11/15 08:29:25;;;;;;;;;73.50;59.00;;;;;14.50;73.99;101662.56;146605;587;46914;-74
2021/11/15 08:32:03;;;;;;;;;75.00;61.25;;;;;14.50;73.68;101666.88;146607;656;46011;-75
2021/11/15 08:34:38;;;;;;;;;73.75;56.50;;;;;14.49;73.54;101662.50;146605;630;45020;-74
2021/11/15 08:37:12;;;;;;;;;76.25;63.00;;;;;14.49;73.70;101659.88;146610;625;45020;-73
2021/11/15 08:39:46;;;;;;;;;71.50;58.25;;;;;14.49;73.89;101662.50;146606;629;46016;-74
2021/11/15 08:42:20;;;;;;;;;72.00;58.00;;;;;14.50;73.91;101662.56;146611;570;45020;-74
2021/11/15 08:44:58;;;;;;;;;75.50;63.25;;;;;14.51;73.79;101661.75;146606;565;46020;-73
2021/11/15 08:47:32;;;;;;;;;71.75;59.50;;;;;14.53;73.79;101664.47;146608;582;45021;-73
2021/11/15 08:50:06;;;;;;;;;72.25;57.25;;;;;14.53;73.72;101656.63;146609;622;45016;-73
2021/11/15 08:52:40;;;;;;;;;71.00;56.25;;;;;14.54;73.44;101664.53;146610;624;46010;-73
2021/11/15 08:55:14;;;;;;;;;72.00;53.75;;;;;14.57;73.25;101661.19;146609;610;46012;-74
2021/11/15 08:57:48;;;;;;;;;69.75;55.00;;;;;14.59;73.56;101654.34;146610;563;45020;-74
2021/11/15 09:00:22;;;;;;;;;74.50;59.50;;;;;14.62;73.69;101651.88;146607;570;45040;-73
2021/11/15 09:02:56;;;;;;;;;75.25;63.75;;;;;14.65;73.39;101658.97;146610;612;45020;-73
2021/11/15 09:05:31;;;;;;;;;72.75;59.00;;;;;14.66;74.01;101660.75;146609;596;45016;-73
2021/11/15 09:08:04;;;;;;;;;67.25;55.00;;;;;14.64;73.55;101663.28;146610;583;45015;-74
2021/11/15 09:10:39;;;;;;;;;72.75;58.50;;;;;14.66;73.52;101656.41;146608;680;45022;-73
2021/11/15 09:13:13;;;;;;;;;72.25;59.75;;;;;13.71;73.27;101481.22;146607;579;46020;-75
2021/11/15 09:15:47;;;;;;;;;72.00;56.00;;;;;14.73;73.22;101653.28;146606;592;47914;-75
2021/11/15 09:18:21;;;;;;;;;74.00;56.75;;;;;14.74;73.02;101649.88;146609;563;46020;-75
2021/11/15 09:20:56;;;;;;;;;74.25;61.75;;;;;14.48;73.26;101604.16;146608;576;45016;-73
2021/11/15 09:23:31;;;;;;;;;75.75;65.75;;;;;14.73;73.23;101635.00;146609;724;45021;-74
2021/11/15 09:26:05;;;;;;;;;74.75;64.25;;;;;14.82;72.92;101642.41;146608;632;46012;-74
2021/11/15 09:28:40;;;;;;;;;76.50;61.25;;;;;14.83;73.40;101638.06;146608;563;46010;-73
2021/11/15 09:31:14;;;;;;;;;71.50;57.25;;;;;14.85;73.11;101632.09;146607;571;46937;-74
2021/11/15 09:33:48;;;;;;;;;71.50;58.75;;;;;14.87;72.99;101637.41;146609;571;47012;-74
2021/11/15 09:36:24;;;;;;;;;77.25;65.50;;;;;14.87;73.03;101637.41;146607;571;45016;-74
2021/11/15 09:39:01;;;;;;;;;80.75;69.25;;;;;14.88;73.16;101640.09;146610;631;45021;-74
2021/11/15 09:41:36;;;;;;;;;77.25;67.00;;;;;14.91;73.05;101645.44;146606;570;45020;-73
2021/11/15 09:44:10;;;;;;;;;74.50;62.50;;;;;14.93;72.69;101640.31;146608;626;46010;-75
2021/11/15 09:46:46;;;;;;;;;74.75;61.50;;;;;14.92;72.97;101634.22;146606;577;46017;-74
2021/11/15 09:49:20;;;;;;;;;74.00;61.00;;;;;14.93;73.17;101638.59;146609;613;46020;-74
2021/11/15 09:51:54;;;;;;;;;74.25;59.75;;;;;14.93;73.24;101633.37;146606;574;45020;-74
2021/11/15 09:54:28;;;;;;;;;73.75;55.50;;;;;14.94;73.07;101634.28;146611;709;46010;-74
2021/11/15 09:57:02;;;;;;;;;72.00;58.00;;;;;14.96;73.03;101622.19;146604;599;46913;-73
2021/11/15 09:59:40;;;;;;;;;72.50;56.50;;;;;14.95;73.51;101625.59;146609;653;46008;-73
2021/11/15 10:02:14;;;;;;;;;69.50;55.00;;;;;14.93;73.53;101622.94;146607;641;46012;-73
2021/11/15 10:04:48;;;;;;;;;70.25;53.50;;;;;14.91;73.80;101624.56;146611;578;45020;-73
2021/11/15 10:07:46;;;;;;;;;69.25;52.50;;;;;14.85;73.39;101615.53;146605;580;46016;-73
2021/11/15 10:10:41;;;;;;;;;72.50;55.25;;;;;14.81;73.76;101627.56;146607;611;46010;-73
2021/11/15 10:13:30;;;;;;;;;71.75;55.50;;;;;14.77;74.34;101625.63;146607;573;45914;-74
2021/11/15 10:16:19;;;;;;;;;73.50;57.25;;;;;14.71;74.84;101622.72;146611;597;45021;-73
2021/11/15 10:19:15;;;;;;;;;67.00;52.25;;;;;14.65;74.17;101620.69;146609;727;45033;-73
2021/11/15 10:21:59;;;;;;;;;69.50;54.00;;;;;14.64;74.27;101625.84;146611;629;45031;-74
2021/11/15 10:24:42;;;;;;;;;70.00;55.75;;;;;14.65;74.81;101617.19;146606;570;46012;-73
2021/11/15 10:27:24;;;;;;;;;71.50;60.50;;;;;14.64;74.93;101621.53;146609;596;45020;-73
2021/11/15 10:29:59;;;;;;;;;72.75;61.00;;;;;14.66;74.45;101613.75;146604;595;47914;-75
2021/11/15 10:32:38;;;;;;;;;74.75;58.25;;;;;14.69;74.80;101613.91;146611;566;45020;-75
2021/11/15 10:35:23;;;;;;;;;90.67;84.00;;;;;14.70;74.41;101607.84;146611;598;45037;-73
2021/11/15 10:37:56;;;;;;;;;88.00;78.67;;;;;14.72;74.54;101609.72;146614;596;45021;-74
2021/11/15 10:40:31;;;;;;;;;86.67;78.67;;;;;14.73;74.49;101600.19;146610;569;46016;-75
2021/11/15 10:43:13;;;;;;;;;74.50;61.25;;;;;14.74;74.38;101608.09;146613;636;46010;-74
2021/11/15 10:45:47;;;;;;;;;75.25;66.25;;;;;14.75;74.43;101598.53;146605;599;46017;-74
2021/11/15 10:48:21;;;;;;;;;75.50;63.25;;;;;14.75;74.66;101594.22;146609;587;46010;-74
2021/11/15 10:50:56;;;;;;;;;78.75;69.00;;;;;14.76;75.10;101596.00;146604;572;46020;-74
2021/11/15 10:53:55;;;;;;;;;74.00;60.75;;;;;14.76;74.10;101596.00;146609;623;45023;-74
2021/11/15 10:56:35;;;;;;;;;74.50;57.75;;;;;12.56;74.43;101214.97;146609;587;46012;-74
2021/11/15 10:59:19;;;;;;;;;76.75;63.75;;;;;14.76;74.41;101592.50;146612;606;45028;-74
2021/11/15 11:01:53;;;;;;;;;75.75;59.00;;;;;14.75;74.96;101598.53;146608;646;45021;-74
2021/11/15 11:04:27;;;;;;;;;74.00;60.75;;;;;14.75;74.82;101595.94;146612;635;45025;-74
2021/11/15 11:07:09;;;;;;;;;68.50;53.00;;;;;14.75;74.68;101596.81;146608;596;45017;-74
2021/11/15 11:09:46;;;;;;;;;72.00;58.25;;;;;14.75;74.93;101595.94;146610;578;45020;-74
2021/11/15 11:12:24;;;;;;;;;74.50;56.75;;;;;14.74;74.38;101581.09;146607;626;46020;-75
2021/11/15 11:15:40;;;;;;;;;75.00;59.25;;;;;13.71;74.52;101395.22;146609;575;46010;-74
2021/11/15 11:18:18;;;;;;;;;70.75;55.00;;;;;14.73;75.18;101580.19;146610;576;46012;-74
2021/11/15 11:27:15;;;;;;;;;71.25;57.00;;;;;14.74;75.74;101584.59;146610;644;45020;-73
2021/11/15 11:29:53;;;;;;;;;77.00;64.75;;;;;14.74;75.46;101578.50;146604;573;46017;-74
2021/11/15 11:32:30;;;;;;;;;78.75;67.50;;;;;14.72;76.33;101573.19;146612;564;45014;-75
2021/11/15 11:35:06;;;;;;;;;77.00;64.50;;;;;14.69;75.86;101577.38;146610;611;45027;-74
2021/11/15 11:37:41;;;;;;;;;76.50;66.75;;;;;14.67;75.49;101584.22;146608;622;45021;-74
2021/11/15 11:40:16;;;;;;;;;77.25;66.25;;;;;14.66;76.12;101577.22;146610;577;45034;-74
2021/11/15 11:42:50;;;;;;;;;78.00;68.00;;;;;14.66;76.73;101572.87;146608;587;46012;-74
2021/11/15 11:45:26;;;;;;;;;77.75;67.00;;;;;14.64;76.31;101577.16;146605;715;45019;-74
2021/11/15 11:48:00;;;;;;;;;81.25;69.00;;;;;14.65;76.14;101573.72;146608;599;45020;-75
2021/11/15 11:50:36;;;;;;;;;97.67;85.33;;;;;14.64;76.53;101573.63;146607;731;46013;-74
2021/11/15 11:53:12;;;;;;;;;78.25;66.25;;;;;14.48;75.87;101541.53;146612;569;46010;-74